sensor_id;sensor_type;location;lat;lon;timestamp;P1;durP1;ratioP1;P2;durP2;ratioP2
6282;SDS011;3174;53.486;9.568;2023-10-13T00:00:40;10.27;;;3.63;;
6282;SDS011;3174;53.486;9.568;2023-10-13T00:03:08;12.50;;;3.63;;
6282;SDS011;3174;53.486;9.568;2023-10-13T00:05:42;11.13;;;3.73;;
6282;SDS011;3174;53.486;9.568;2023-10-13T00:08:11;7.03;;;2.30;;
6282;SDS011;3174;53.486;9.568;2023-10-13T00:10:40;9.50;;;4.07;;
6282;SDS011;3174;53.486;9.568;2023-10-13T00:13:09;7.33;;;2.30;;
6282;SDS011;3174;53.486;9.568;2023-10-13T00:15:41;6.97;;;2.40;;
6282;SDS011;3174;53.486;9.568;2023-10-13T00:18:21;5.80;;;1.83;;
6282;SDS011;3174;53.486;9.568;2023-10-13T00:20:49;4.53;;;2.03;;
6282;SDS011;3174;53.486;9.568;2023-10-13T00:23:17;8.93;;;2.77;;
6282;SDS011;3174;53.486;9.568;2023-10-13T00:25:48;14.87;;;5.97;;
6282;SDS011;3174;53.486;9.568;2023-10-13T00:28:25;8.43;;;2.87;;
6282;SDS011;3174;53.486;9.568;2023-10-13T00:31:03;14.77;;;5.50;;
6282;SDS011;3174;53.486;9.568;2023-10-13T00:33:37;6.33;;;2.60;;
6282;SDS011;3174;53.486;9.568;2023-10-13T00:36:08;10.13;;;4.27;;
6282;SDS011;3174;53.486;9.568;2023-10-13T00:38:43;17.20;;;7.00;;
6282;SDS011;3174;53.486;9.568;2023-10-13T00:41:15;14.63;;;5.60;;
6282;SDS011;3174;53.486;9.568;2023-10-13T00:43:44;11.70;;;4.90;;
6282;SDS011;3174;53.486;9.568;2023-10-13T00:46:13;18.33;;;6.20;;
6282;SDS011;3174;53.486;9.568;2023-10-13T00:48:45;13.00;;;5.63;;
6282;SDS011;3174;53.486;9.568;2023-10-13T00:51:19;17.23;;;7.30;;
6282;SDS011;3174;53.486;9.568;2023-10-13T00:53:59;17.03;;;6.90;;
6282;SDS011;3174;53.486;9.568;2023-10-13T00:56:34;19.27;;;7.10;;
6282;SDS011;3174;53.486;9.568;2023-10-13T00:59:07;16.37;;;6.20;;
6282;SDS011;3174;53.486;9.568;2023-10-13T01:01:38;16.83;;;6.73;;
6282;SDS011;3174;53.486;9.568;2023-10-13T01:04:08;19.80;;;7.17;;
6282;SDS011;3174;53.486;9.568;2023-10-13T01:06:39;20.17;;;7.67;;
6282;SDS011;3174;53.486;9.568;2023-10-13T01:09:06;24.53;;;8.60;;
6282;SDS011;3174;53.486;9.568;2023-10-13T01:11:43;22.27;;;8.63;;
6282;SDS011;3174;53.486;9.568;2023-10-13T01:14:11;20.33;;;7.63;;
6282;SDS011;3174;53.486;9.568;2023-10-13T01:16:43;25.60;;;9.20;;
6282;SDS011;3174;53.486;9.568;2023-10-13T01:19:10;22.07;;;7.33;;
6282;SDS011;3174;53.486;9.568;2023-10-13T01:21:40;22.50;;;7.73;;
6282;SDS011;3174;53.486;9.568;2023-10-13T01:24:09;25.33;;;8.93;;
6282;SDS011;3174;53.486;9.568;2023-10-13T01:26:40;21.07;;;8.10;;
6282;SDS011;3174;53.486;9.568;2023-10-13T01:29:09;19.47;;;7.87;;
6282;SDS011;3174;53.486;9.568;2023-10-13T01:31:41;25.43;;;9.37;;
6282;SDS011;3174;53.486;9.568;2023-10-13T01:34:13;20.00;;;8.87;;
6282;SDS011;3174;53.486;9.568;2023-10-13T01:36:46;21.23;;;9.30;;
6282;SDS011;3174;53.486;9.568;2023-10-13T01:39:19;22.73;;;8.63;;
6282;SDS011;3174;53.486;9.568;2023-10-13T01:41:47;28.87;;;10.53;;
6282;SDS011;3174;53.486;9.568;2023-10-13T01:44:22;25.13;;;10.07;;
6282;SDS011;3174;53.486;9.568;2023-10-13T01:46:50;21.27;;;7.23;;
6282;SDS011;3174;53.486;9.568;2023-10-13T01:49:18;22.23;;;8.87;;
6282;SDS011;3174;53.486;9.568;2023-10-13T01:51:48;15.63;;;7.77;;
6282;SDS011;3174;53.486;9.568;2023-10-13T01:54:15;22.13;;;9.90;;
6282;SDS011;3174;53.486;9.568;2023-10-13T01:56:45;29.03;;;11.17;;
6282;SDS011;3174;53.486;9.568;2023-10-13T01:59:12;29.00;;;10.97;;
6282;SDS011;3174;53.486;9.568;2023-10-13T02:01:41;26.63;;;10.33;;
6282;SDS011;3174;53.486;9.568;2023-10-13T02:04:09;22.53;;;10.43;;
6282;SDS011;3174;53.486;9.568;2023-10-13T02:06:37;25.10;;;10.97;;
6282;SDS011;3174;53.486;9.568;2023-10-13T02:09:04;29.10;;;11.93;;
6282;SDS011;3174;53.486;9.568;2023-10-13T02:11:40;25.93;;;10.40;;
6282;SDS011;3174;53.486;9.568;2023-10-13T02:14:09;16.80;;;7.33;;
6282;SDS011;3174;53.486;9.568;2023-10-13T02:16:38;23.10;;;9.90;;
6282;SDS011;3174;53.486;9.568;2023-10-13T02:19:06;26.00;;;9.77;;
6282;SDS011;3174;53.486;9.568;2023-10-13T02:21:35;22.87;;;10.80;;
6282;SDS011;3174;53.486;9.568;2023-10-13T02:24:06;19.20;;;8.40;;
6282;SDS011;3174;53.486;9.568;2023-10-13T02:26:39;23.50;;;9.60;;
6282;SDS011;3174;53.486;9.568;2023-10-13T02:29:07;23.47;;;9.93;;
6282;SDS011;3174;53.486;9.568;2023-10-13T02:31:43;24.30;;;10.43;;
6282;SDS011;3174;53.486;9.568;2023-10-13T02:34:21;24.17;;;11.47;;
6282;SDS011;3174;53.486;9.568;2023-10-13T02:36:50;22.60;;;8.97;;
6282;SDS011;3174;53.486;9.568;2023-10-13T02:39:18;25.33;;;9.93;;
6282;SDS011;3174;53.486;9.568;2023-10-13T02:41:53;30.83;;;10.60;;
6282;SDS011;3174;53.486;9.568;2023-10-13T02:44:22;26.63;;;11.37;;
6282;SDS011;3174;53.486;9.568;2023-10-13T02:46:58;26.37;;;10.57;;
6282;SDS011;3174;53.486;9.568;2023-10-13T02:49:26;24.87;;;10.67;;
6282;SDS011;3174;53.486;9.568;2023-10-13T02:51:58;22.50;;;9.57;;
6282;SDS011;3174;53.486;9.568;2023-10-13T02:54:26;27.23;;;11.07;;
6282;SDS011;3174;53.486;9.568;2023-10-13T02:56:58;21.93;;;9.20;;
6282;SDS011;3174;53.486;9.568;2023-10-13T02:59:30;21.13;;;9.70;;
6282;SDS011;3174;53.486;9.568;2023-10-13T03:02:08;22.00;;;9.13;;
6282;SDS011;3174;53.486;9.568;2023-10-13T03:04:46;18.13;;;8.03;;
6282;SDS011;3174;53.486;9.568;2023-10-13T03:07:14;16.50;;;8.13;;
6282;SDS011;3174;53.486;9.568;2023-10-13T03:09:49;14.07;;;7.50;;
6282;SDS011;3174;53.486;9.568;2023-10-13T03:12:24;19.67;;;7.07;;
6282;SDS011;3174;53.486;9.568;2023-10-13T03:14:51;13.77;;;6.53;;
6282;SDS011;3174;53.486;9.568;2023-10-13T03:17:24;11.50;;;5.90;;
6282;SDS011;3174;53.486;9.568;2023-10-13T03:20:00;17.83;;;7.17;;
6282;SDS011;3174;53.486;9.568;2023-10-13T03:22:27;18.57;;;6.33;;
6282;SDS011;3174;53.486;9.568;2023-10-13T03:24:58;14.80;;;7.23;;
6282;SDS011;3174;53.486;9.568;2023-10-13T03:27:31;15.67;;;6.87;;
6282;SDS011;3174;53.486;9.568;2023-10-13T03:30:07;13.97;;;6.23;;
6282;SDS011;3174;53.486;9.568;2023-10-13T03:32:43;14.93;;;6.87;;
6282;SDS011;3174;53.486;9.568;2023-10-13T03:35:13;14.67;;;7.07;;
6282;SDS011;3174;53.486;9.568;2023-10-13T03:37:50;17.10;;;8.13;;
6282;SDS011;3174;53.486;9.568;2023-10-13T03:40:18;15.37;;;8.50;;
6282;SDS011;3174;53.486;9.568;2023-10-13T03:43:01;15.07;;;7.63;;
6282;SDS011;3174;53.486;9.568;2023-10-13T03:45:32;14.53;;;7.77;;
6282;SDS011;3174;53.486;9.568;2023-10-13T03:48:06;17.70;;;7.97;;
6282;SDS011;3174;53.486;9.568;2023-10-13T03:50:38;16.47;;;8.47;;
6282;SDS011;3174;53.486;9.568;2023-10-13T03:53:14;20.97;;;9.60;;
6282;SDS011;3174;53.486;9.568;2023-10-13T03:55:42;20.77;;;9.67;;
6282;SDS011;3174;53.486;9.568;2023-10-13T03:58:15;20.87;;;11.10;;
6282;SDS011;3174;53.486;9.568;2023-10-13T04:00:44;20.63;;;10.13;;
6282;SDS011;3174;53.486;9.568;2023-10-13T04:03:13;20.53;;;10.23;;
6282;SDS011;3174;53.486;9.568;2023-10-13T04:05:44;21.07;;;11.33;;
6282;SDS011;3174;53.486;9.568;2023-10-13T04:08:27;19.57;;;11.33;;
6282;SDS011;3174;53.486;9.568;2023-10-13T04:11:15;22.93;;;11.47;;
6282;SDS011;3174;53.486;9.568;2023-10-13T04:14:00;22.13;;;10.53;;
6282;SDS011;3174;53.486;9.568;2023-10-13T04:16:46;27.87;;;12.90;;
6282;SDS011;3174;53.486;9.568;2023-10-13T04:19:22;24.40;;;11.70;;
6282;SDS011;3174;53.486;9.568;2023-10-13T04:21:52;29.53;;;13.40;;
6282;SDS011;3174;53.486;9.568;2023-10-13T04:24:40;29.87;;;13.90;;
6282;SDS011;3174;53.486;9.568;2023-10-13T04:27:26;29.00;;;14.37;;
6282;SDS011;3174;53.486;9.568;2023-10-13T04:30:07;23.23;;;11.20;;
6282;SDS011;3174;53.486;9.568;2023-10-13T04:32:37;33.40;;;13.77;;
6282;SDS011;3174;53.486;9.568;2023-10-13T04:35:15;31.97;;;15.10;;
6282;SDS011;3174;53.486;9.568;2023-10-13T04:37:45;29.23;;;14.47;;
6282;SDS011;3174;53.486;9.568;2023-10-13T04:40:21;28.33;;;14.30;;
6282;SDS011;3174;53.486;9.568;2023-10-13T04:42:51;34.13;;;15.10;;
6282;SDS011;3174;53.486;9.568;2023-10-13T04:45:23;31.90;;;15.53;;
6282;SDS011;3174;53.486;9.568;2023-10-13T04:48:14;34.77;;;15.43;;
6282;SDS011;3174;53.486;9.568;2023-10-13T04:51:00;31.33;;;14.47;;
6282;SDS011;3174;53.486;9.568;2023-10-13T04:54:10;30.07;;;14.23;;
6282;SDS011;3174;53.486;9.568;2023-10-13T04:56:51;29.00;;;13.23;;
6282;SDS011;3174;53.486;9.568;2023-10-13T04:59:37;33.27;;;14.57;;
6282;SDS011;3174;53.486;9.568;2023-10-13T05:02:25;24.37;;;13.10;;
6282;SDS011;3174;53.486;9.568;2023-10-13T05:05:10;29.23;;;13.40;;
6282;SDS011;3174;53.486;9.568;2023-10-13T05:08:10;30.73;;;14.13;;
6282;SDS011;3174;53.486;9.568;2023-10-13T05:10:56;29.40;;;13.43;;
6282;SDS011;3174;53.486;9.568;2023-10-13T05:13:41;34.63;;;14.70;;
6282;SDS011;3174;53.486;9.568;2023-10-13T05:16:27;29.03;;;12.93;;
6282;SDS011;3174;53.486;9.568;2023-10-13T05:19:11;27.50;;;14.07;;
6282;SDS011;3174;53.486;9.568;2023-10-13T05:21:57;30.33;;;13.27;;
6282;SDS011;3174;53.486;9.568;2023-10-13T05:24:44;33.77;;;15.97;;
6282;SDS011;3174;53.486;9.568;2023-10-13T05:27:29;32.13;;;14.33;;
6282;SDS011;3174;53.486;9.568;2023-10-13T05:30:15;30.20;;;13.93;;
6282;SDS011;3174;53.486;9.568;2023-10-13T05:33:00;28.67;;;13.50;;
6282;SDS011;3174;53.486;9.568;2023-10-13T05:35:45;29.47;;;13.53;;
6282;SDS011;3174;53.486;9.568;2023-10-13T05:38:31;36.00;;;14.63;;
6282;SDS011;3174;53.486;9.568;2023-10-13T05:41:17;32.17;;;14.37;;
6282;SDS011;3174;53.486;9.568;2023-10-13T05:44:03;30.07;;;14.77;;
6282;SDS011;3174;53.486;9.568;2023-10-13T05:46:49;26.13;;;12.73;;
6282;SDS011;3174;53.486;9.568;2023-10-13T05:49:28;26.13;;;13.57;;
6282;SDS011;3174;53.486;9.568;2023-10-13T05:52:13;25.50;;;12.83;;
6282;SDS011;3174;53.486;9.568;2023-10-13T05:54:55;24.73;;;12.73;;
6282;SDS011;3174;53.486;9.568;2023-10-13T05:57:42;24.17;;;12.30;;
6282;SDS011;3174;53.486;9.568;2023-10-13T06:00:27;27.27;;;13.20;;
6282;SDS011;3174;53.486;9.568;2023-10-13T06:03:13;24.43;;;13.17;;
6282;SDS011;3174;53.486;9.568;2023-10-13T06:05:58;25.50;;;12.40;;
6282;SDS011;3174;53.486;9.568;2023-10-13T06:08:43;24.67;;;12.90;;
6282;SDS011;3174;53.486;9.568;2023-10-13T06:11:29;25.50;;;12.47;;
6282;SDS011;3174;53.486;9.568;2023-10-13T06:14:16;25.87;;;12.07;;
6282;SDS011;3174;53.486;9.568;2023-10-13T06:17:01;23.07;;;12.33;;
6282;SDS011;3174;53.486;9.568;2023-10-13T06:19:47;24.27;;;12.57;;
6282;SDS011;3174;53.486;9.568;2023-10-13T06:22:32;24.60;;;12.50;;
6282;SDS011;3174;53.486;9.568;2023-10-13T06:25:18;23.10;;;12.80;;
6282;SDS011;3174;53.486;9.568;2023-10-13T06:28:03;23.40;;;12.13;;
6282;SDS011;3174;53.486;9.568;2023-10-13T06:30:59;25.47;;;13.03;;
6282;SDS011;3174;53.486;9.568;2023-10-13T06:33:28;23.27;;;13.60;;
6282;SDS011;3174;53.486;9.568;2023-10-13T06:36:00;23.30;;;12.53;;
6282;SDS011;3174;53.486;9.568;2023-10-13T06:38:29;23.67;;;13.20;;
6282;SDS011;3174;53.486;9.568;2023-10-13T06:41:02;24.70;;;13.73;;
6282;SDS011;3174;53.486;9.568;2023-10-13T06:43:31;25.87;;;13.07;;
6282;SDS011;3174;53.486;9.568;2023-10-13T06:46:07;24.80;;;12.63;;
6282;SDS011;3174;53.486;9.568;2023-10-13T06:48:41;29.50;;;13.13;;
6282;SDS011;3174;53.486;9.568;2023-10-13T06:51:10;31.37;;;14.23;;
6282;SDS011;3174;53.486;9.568;2023-10-13T06:53:44;27.80;;;13.87;;
6282;SDS011;3174;53.486;9.568;2023-10-13T06:56:14;23.50;;;12.90;;
6282;SDS011;3174;53.486;9.568;2023-10-13T06:58:53;23.37;;;13.37;;
6282;SDS011;3174;53.486;9.568;2023-10-13T07:01:27;24.73;;;13.63;;
6282;SDS011;3174;53.486;9.568;2023-10-13T07:03:55;24.23;;;13.37;;
6282;SDS011;3174;53.486;9.568;2023-10-13T07:06:28;22.37;;;13.60;;
6282;SDS011;3174;53.486;9.568;2023-10-13T07:08:58;25.20;;;13.50;;
6282;SDS011;3174;53.486;9.568;2023-10-13T07:11:31;24.37;;;13.23;;
6282;SDS011;3174;53.486;9.568;2023-10-13T07:14:00;26.03;;;13.10;;
6282;SDS011;3174;53.486;9.568;2023-10-13T07:16:41;26.30;;;12.97;;
6282;SDS011;3174;53.486;9.568;2023-10-13T07:19:13;22.17;;;12.57;;
6282;SDS011;3174;53.486;9.568;2023-10-13T07:21:46;22.90;;;13.10;;
6282;SDS011;3174;53.486;9.568;2023-10-13T07:24:14;21.80;;;12.67;;
6282;SDS011;3174;53.486;9.568;2023-10-13T07:26:42;20.73;;;11.07;;
6282;SDS011;3174;53.486;9.568;2023-10-13T07:29:12;20.50;;;12.00;;
6282;SDS011;3174;53.486;9.568;2023-10-13T07:31:42;18.63;;;11.73;;
6282;SDS011;3174;53.486;9.568;2023-10-13T07:34:12;22.27;;;12.43;;
6282;SDS011;3174;53.486;9.568;2023-10-13T07:36:51;22.00;;;12.23;;
6282;SDS011;3174;53.486;9.568;2023-10-13T07:39:26;19.67;;;11.33;;
6282;SDS011;3174;53.486;9.568;2023-10-13T07:42:02;19.50;;;11.73;;
6282;SDS011;3174;53.486;9.568;2023-10-13T07:44:35;18.50;;;10.50;;
6282;SDS011;3174;53.486;9.568;2023-10-13T07:47:14;17.63;;;10.67;;
6282;SDS011;3174;53.486;9.568;2023-10-13T07:49:44;23.53;;;10.60;;
6282;SDS011;3174;53.486;9.568;2023-10-13T07:52:17;20.23;;;10.83;;
6282;SDS011;3174;53.486;9.568;2023-10-13T07:55:03;17.73;;;10.50;;
6282;SDS011;3174;53.486;9.568;2023-10-13T07:57:46;15.83;;;9.40;;
6282;SDS011;3174;53.486;9.568;2023-10-13T08:00:22;15.97;;;9.63;;
6282;SDS011;3174;53.486;9.568;2023-10-13T08:02:57;13.93;;;8.30;;
6282;SDS011;3174;53.486;9.568;2023-10-13T08:05:36;15.80;;;9.10;;
6282;SDS011;3174;53.486;9.568;2023-10-13T08:08:22;16.67;;;9.73;;
6282;SDS011;3174;53.486;9.568;2023-10-13T08:10:52;15.17;;;9.37;;
6282;SDS011;3174;53.486;9.568;2023-10-13T08:13:23;15.47;;;9.70;;
6282;SDS011;3174;53.486;9.568;2023-10-13T08:15:53;16.97;;;9.63;;
6282;SDS011;3174;53.486;9.568;2023-10-13T08:18:22;13.33;;;7.67;;
6282;SDS011;3174;53.486;9.568;2023-10-13T08:20:57;15.17;;;8.90;;
6282;SDS011;3174;53.486;9.568;2023-10-13T08:23:30;11.73;;;7.37;;
6282;SDS011;3174;53.486;9.568;2023-10-13T08:26:16;12.10;;;7.50;;
6282;SDS011;3174;53.486;9.568;2023-10-13T08:28:57;10.07;;;6.50;;
6282;SDS011;3174;53.486;9.568;2023-10-13T08:31:46;10.27;;;6.93;;
6282;SDS011;3174;53.486;9.568;2023-10-13T08:34:33;9.83;;;6.50;;
6282;SDS011;3174;53.486;9.568;2023-10-13T08:37:05;10.47;;;6.50;;
6282;SDS011;3174;53.486;9.568;2023-10-13T08:39:46;8.43;;;6.20;;
6282;SDS011;3174;53.486;9.568;2023-10-13T08:42:53;10.57;;;5.70;;
6282;SDS011;3174;53.486;9.568;2023-10-13T08:45:38;12.27;;;5.83;;
6282;SDS011;3174;53.486;9.568;2023-10-13T08:48:25;8.77;;;5.73;;
6282;SDS011;3174;53.486;9.568;2023-10-13T08:51:00;9.13;;;5.37;;
6282;SDS011;3174;53.486;9.568;2023-10-13T08:53:37;8.87;;;6.00;;
6282;SDS011;3174;53.486;9.568;2023-10-13T08:56:18;9.53;;;5.63;;
6282;SDS011;3174;53.486;9.568;2023-10-13T08:58:59;8.13;;;5.50;;
6282;SDS011;3174;53.486;9.568;2023-10-13T09:01:36;7.00;;;4.77;;
6282;SDS011;3174;53.486;9.568;2023-10-13T09:04:12;6.03;;;4.43;;
6282;SDS011;3174;53.486;9.568;2023-10-13T09:06:50;10.53;;;5.73;;
6282;SDS011;3174;53.486;9.568;2023-10-13T09:09:44;9.93;;;5.00;;
6282;SDS011;3174;53.486;9.568;2023-10-13T09:12:58;7.70;;;4.40;;
6282;SDS011;3174;53.486;9.568;2023-10-13T09:15:29;6.23;;;3.63;;
6282;SDS011;3174;53.486;9.568;2023-10-13T09:18:22;6.93;;;4.53;;
6282;SDS011;3174;53.486;9.568;2023-10-13T09:21:08;7.37;;;4.13;;
6282;SDS011;3174;53.486;9.568;2023-10-13T09:23:55;13.47;;;4.77;;
6282;SDS011;3174;53.486;9.568;2023-10-13T09:26:49;8.27;;;3.90;;
6282;SDS011;3174;53.486;9.568;2023-10-13T09:29:20;5.80;;;3.77;;
6282;SDS011;3174;53.486;9.568;2023-10-13T09:31:58;7.27;;;3.87;;
6282;SDS011;3174;53.486;9.568;2023-10-13T09:34:29;6.97;;;3.60;;
6282;SDS011;3174;53.486;9.568;2023-10-13T09:36:58;5.50;;;3.53;;
6282;SDS011;3174;53.486;9.568;2023-10-13T09:39:29;5.90;;;3.40;;
6282;SDS011;3174;53.486;9.568;2023-10-13T09:42:02;5.97;;;3.57;;
6282;SDS011;3174;53.486;9.568;2023-10-13T09:44:36;8.27;;;3.53;;
6282;SDS011;3174;53.486;9.568;2023-10-13T09:47:09;9.80;;;3.57;;
6282;SDS011;3174;53.486;9.568;2023-10-13T09:49:44;7.57;;;3.37;;
6282;SDS011;3174;53.486;9.568;2023-10-13T09:52:15;9.57;;;3.97;;
6282;SDS011;3174;53.486;9.568;2023-10-13T09:55:04;7.43;;;3.70;;
6282;SDS011;3174;53.486;9.568;2023-10-13T09:57:43;6.90;;;3.13;;
6282;SDS011;3174;53.486;9.568;2023-10-13T10:00:15;6.20;;;4.07;;
6282;SDS011;3174;53.486;9.568;2023-10-13T10:03:01;5.50;;;3.70;;
6282;SDS011;3174;53.486;9.568;2023-10-13T10:05:41;8.03;;;3.67;;
6282;SDS011;3174;53.486;9.568;2023-10-13T10:08:23;6.83;;;3.70;;
6282;SDS011;3174;53.486;9.568;2023-10-13T10:11:00;7.30;;;3.70;;
6282;SDS011;3174;53.486;9.568;2023-10-13T10:13:35;7.93;;;3.93;;
6282;SDS011;3174;53.486;9.568;2023-10-13T10:16:08;9.07;;;4.83;;
6282;SDS011;3174;53.486;9.568;2023-10-13T10:18:41;7.57;;;4.00;;
6282;SDS011;3174;53.486;9.568;2023-10-13T10:21:11;6.13;;;3.87;;
6282;SDS011;3174;53.486;9.568;2023-10-13T10:23:42;8.20;;;4.60;;
6282;SDS011;3174;53.486;9.568;2023-10-13T10:26:20;7.77;;;3.80;;
6282;SDS011;3174;53.486;9.568;2023-10-13T10:28:49;7.67;;;4.03;;
6282;SDS011;3174;53.486;9.568;2023-10-13T10:31:17;9.23;;;3.70;;
6282;SDS011;3174;53.486;9.568;2023-10-13T10:33:46;9.30;;;5.83;;
6282;SDS011;3174;53.486;9.568;2023-10-13T10:36:17;9.07;;;4.50;;
6282;SDS011;3174;53.486;9.568;2023-10-13T10:38:57;12.47;;;4.17;;
6282;SDS011;3174;53.486;9.568;2023-10-13T10:41:26;13.17;;;4.40;;
6282;SDS011;3174;53.486;9.568;2023-10-13T10:44:10;6.60;;;4.00;;
6282;SDS011;3174;53.486;9.568;2023-10-13T10:46:43;5.93;;;4.10;;
6282;SDS011;3174;53.486;9.568;2023-10-13T10:49:25;11.97;;;4.40;;
6282;SDS011;3174;53.486;9.568;2023-10-13T10:51:57;8.00;;;3.43;;
6282;SDS011;3174;53.486;9.568;2023-10-13T10:54:30;6.13;;;4.03;;
6282;SDS011;3174;53.486;9.568;2023-10-13T10:56:59;10.47;;;4.80;;
6282;SDS011;3174;53.486;9.568;2023-10-13T10:59:39;9.03;;;4.30;;
6282;SDS011;3174;53.486;9.568;2023-10-13T11:02:07;6.93;;;4.17;;
6282;SDS011;3174;53.486;9.568;2023-10-13T11:04:37;7.50;;;5.00;;
6282;SDS011;3174;53.486;9.568;2023-10-13T11:07:21;8.10;;;4.17;;
6282;SDS011;3174;53.486;9.568;2023-10-13T11:09:50;10.17;;;4.60;;
6282;SDS011;3174;53.486;9.568;2023-10-13T11:12:31;11.07;;;4.80;;
6282;SDS011;3174;53.486;9.568;2023-10-13T11:15:03;8.53;;;4.43;;
6282;SDS011;3174;53.486;9.568;2023-10-13T11:17:40;8.30;;;4.33;;
6282;SDS011;3174;53.486;9.568;2023-10-13T11:20:18;6.40;;;4.97;;
6282;SDS011;3174;53.486;9.568;2023-10-13T11:22:52;6.93;;;4.67;;
6282;SDS011;3174;53.486;9.568;2023-10-13T11:25:21;5.70;;;3.93;;
6282;SDS011;3174;53.486;9.568;2023-10-13T11:27:56;10.73;;;4.43;;
6282;SDS011;3174;53.486;9.568;2023-10-13T11:30:27;8.50;;;4.43;;
6282;SDS011;3174;53.486;9.568;2023-10-13T11:33:08;9.00;;;4.33;;
6282;SDS011;3174;53.486;9.568;2023-10-13T11:35:38;9.50;;;4.70;;
6282;SDS011;3174;53.486;9.568;2023-10-13T11:38:20;9.13;;;4.27;;
6282;SDS011;3174;53.486;9.568;2023-10-13T11:40:56;7.40;;;4.87;;
6282;SDS011;3174;53.486;9.568;2023-10-13T11:43:35;7.83;;;4.43;;
6282;SDS011;3174;53.486;9.568;2023-10-13T11:46:23;8.23;;;4.27;;
6282;SDS011;3174;53.486;9.568;2023-10-13T11:49:09;10.33;;;4.60;;
6282;SDS011;3174;53.486;9.568;2023-10-13T11:51:45;9.20;;;4.03;;
6282;SDS011;3174;53.486;9.568;2023-10-13T11:54:14;8.03;;;3.90;;
6282;SDS011;3174;53.486;9.568;2023-10-13T11:56:42;9.77;;;4.43;;
6282;SDS011;3174;53.486;9.568;2023-10-13T11:59:11;10.17;;;4.27;;
6282;SDS011;3174;53.486;9.568;2023-10-13T12:01:46;6.27;;;3.53;;
6282;SDS011;3174;53.486;9.568;2023-10-13T12:04:32;7.77;;;3.47;;
6282;SDS011;3174;53.486;9.568;2023-10-13T12:07:07;11.57;;;3.97;;
6282;SDS011;3174;53.486;9.568;2023-10-13T12:09:52;8.87;;;3.53;;
6282;SDS011;3174;53.486;9.568;2023-10-13T12:12:41;10.30;;;3.77;;
6282;SDS011;3174;53.486;9.568;2023-10-13T12:15:09;6.93;;;3.33;;
6282;SDS011;3174;53.486;9.568;2023-10-13T12:17:42;9.57;;;4.00;;
6282;SDS011;3174;53.486;9.568;2023-10-13T12:20:12;7.23;;;3.50;;
6282;SDS011;3174;53.486;9.568;2023-10-13T12:22:51;10.07;;;3.40;;
6282;SDS011;3174;53.486;9.568;2023-10-13T12:25:21;7.07;;;3.47;;
6282;SDS011;3174;53.486;9.568;2023-10-13T12:28:10;10.83;;;3.90;;
6282;SDS011;3174;53.486;9.568;2023-10-13T12:30:45;8.47;;;3.87;;
6282;SDS011;3174;53.486;9.568;2023-10-13T12:33:19;7.87;;;3.27;;
6282;SDS011;3174;53.486;9.568;2023-10-13T12:36:03;7.33;;;3.30;;
6282;SDS011;3174;53.486;9.568;2023-10-13T12:38:36;4.83;;;3.40;;
6282;SDS011;3174;53.486;9.568;2023-10-13T12:41:04;6.00;;;3.20;;
6282;SDS011;3174;53.486;9.568;2023-10-13T12:44:01;7.83;;;3.53;;
6282;SDS011;3174;53.486;9.568;2023-10-13T12:46:43;9.50;;;3.87;;
6282;SDS011;3174;53.486;9.568;2023-10-13T12:49:29;6.60;;;3.70;;
6282;SDS011;3174;53.486;9.568;2023-10-13T12:52:24;4.93;;;3.47;;
6282;SDS011;3174;53.486;9.568;2023-10-13T12:54:53;5.60;;;3.47;;
6282;SDS011;3174;53.486;9.568;2023-10-13T12:57:33;9.37;;;3.20;;
6282;SDS011;3174;53.486;9.568;2023-10-13T13:00:13;10.30;;;3.70;;
6282;SDS011;3174;53.486;9.568;2023-10-13T13:02:48;11.07;;;3.70;;
6282;SDS011;3174;53.486;9.568;2023-10-13T13:05:21;6.50;;;3.63;;
6282;SDS011;3174;53.486;9.568;2023-10-13T13:07:55;7.50;;;4.47;;
6282;SDS011;3174;53.486;9.568;2023-10-13T13:10:23;6.10;;;3.40;;
6282;SDS011;3174;53.486;9.568;2023-10-13T13:13:05;11.17;;;4.03;;
6282;SDS011;3174;53.486;9.568;2023-10-13T13:15:35;12.30;;;3.60;;
6282;SDS011;3174;53.486;9.568;2023-10-13T13:18:04;12.43;;;4.23;;
6282;SDS011;3174;53.486;9.568;2023-10-13T13:20:39;6.50;;;3.33;;
6282;SDS011;3174;53.486;9.568;2023-10-13T13:23:20;9.73;;;3.67;;
6282;SDS011;3174;53.486;9.568;2023-10-13T13:25:52;9.50;;;3.60;;
6282;SDS011;3174;53.486;9.568;2023-10-13T13:28:23;9.33;;;3.80;;
6282;SDS011;3174;53.486;9.568;2023-10-13T13:30:55;8.47;;;3.83;;
6282;SDS011;3174;53.486;9.568;2023-10-13T13:33:23;8.90;;;3.37;;
6282;SDS011;3174;53.486;9.568;2023-10-13T13:35:57;7.17;;;3.17;;
6282;SDS011;3174;53.486;9.568;2023-10-13T13:38:26;6.60;;;2.93;;
6282;SDS011;3174;53.486;9.568;2023-10-13T13:40:58;8.23;;;3.30;;
6282;SDS011;3174;53.486;9.568;2023-10-13T13:43:28;10.67;;;3.90;;
6282;SDS011;3174;53.486;9.568;2023-10-13T13:46:04;8.60;;;3.00;;
6282;SDS011;3174;53.486;9.568;2023-10-13T13:48:36;7.43;;;3.40;;
6282;SDS011;3174;53.486;9.568;2023-10-13T13:51:05;7.50;;;3.80;;
6282;SDS011;3174;53.486;9.568;2023-10-13T13:53:40;7.80;;;4.17;;
6282;SDS011;3174;53.486;9.568;2023-10-13T13:56:12;5.03;;;3.53;;
6282;SDS011;3174;53.486;9.568;2023-10-13T13:58:43;7.50;;;3.83;;
6282;SDS011;3174;53.486;9.568;2023-10-13T14:01:12;8.37;;;3.53;;
6282;SDS011;3174;53.486;9.568;2023-10-13T14:03:41;9.73;;;4.43;;
6282;SDS011;3174;53.486;9.568;2023-10-13T14:06:18;10.30;;;3.87;;
6282;SDS011;3174;53.486;9.568;2023-10-13T14:08:50;10.33;;;3.77;;
6282;SDS011;3174;53.486;9.568;2023-10-13T14:11:22;7.53;;;3.53;;
6282;SDS011;3174;53.486;9.568;2023-10-13T14:14:05;9.23;;;4.20;;
6282;SDS011;3174;53.486;9.568;2023-10-13T14:16:38;10.80;;;4.13;;
6282;SDS011;3174;53.486;9.568;2023-10-13T14:19:11;10.03;;;3.97;;
6282;SDS011;3174;53.486;9.568;2023-10-13T14:21:40;11.13;;;4.13;;
6282;SDS011;3174;53.486;9.568;2023-10-13T14:24:09;11.73;;;3.80;;
6282;SDS011;3174;53.486;9.568;2023-10-13T14:26:44;10.73;;;3.73;;
6282;SDS011;3174;53.486;9.568;2023-10-13T14:29:12;7.83;;;3.47;;
6282;SDS011;3174;53.486;9.568;2023-10-13T14:31:42;8.97;;;3.97;;
6282;SDS011;3174;53.486;9.568;2023-10-13T14:34:10;9.03;;;3.70;;
6282;SDS011;3174;53.486;9.568;2023-10-13T14:36:40;6.13;;;3.43;;
6282;SDS011;3174;53.486;9.568;2023-10-13T14:39:14;7.13;;;3.10;;
6282;SDS011;3174;53.486;9.568;2023-10-13T14:41:42;10.63;;;4.27;;
6282;SDS011;3174;53.486;9.568;2023-10-13T14:44:13;13.13;;;4.40;;
6282;SDS011;3174;53.486;9.568;2023-10-13T14:46:41;6.07;;;4.07;;
6282;SDS011;3174;53.486;9.568;2023-10-13T14:49:09;8.80;;;4.23;;
6282;SDS011;3174;53.486;9.568;2023-10-13T14:51:38;10.97;;;3.53;;
6282;SDS011;3174;53.486;9.568;2023-10-13T14:54:08;9.13;;;3.57;;
6282;SDS011;3174;53.486;9.568;2023-10-13T14:56:36;9.23;;;4.03;;
6282;SDS011;3174;53.486;9.568;2023-10-13T14:59:04;8.10;;;3.87;;
6282;SDS011;3174;53.486;9.568;2023-10-13T15:01:33;6.63;;;4.00;;
6282;SDS011;3174;53.486;9.568;2023-10-13T15:04:02;23.13;;;10.67;;
6282;SDS011;3174;53.486;9.568;2023-10-13T15:06:31;10.70;;;5.03;;
6282;SDS011;3174;53.486;9.568;2023-10-13T15:08:59;9.07;;;4.37;;
6282;SDS011;3174;53.486;9.568;2023-10-13T15:11:29;9.87;;;4.53;;
6282;SDS011;3174;53.486;9.568;2023-10-13T15:14:14;7.70;;;3.97;;
6282;SDS011;3174;53.486;9.568;2023-10-13T15:16:42;10.73;;;4.00;;
6282;SDS011;3174;53.486;9.568;2023-10-13T15:19:11;14.27;;;4.57;;
6282;SDS011;3174;53.486;9.568;2023-10-13T15:21:39;8.70;;;3.83;;
6282;SDS011;3174;53.486;9.568;2023-10-13T15:24:07;9.17;;;4.07;;
6282;SDS011;3174;53.486;9.568;2023-10-13T15:26:45;10.23;;;3.93;;
6282;SDS011;3174;53.486;9.568;2023-10-13T15:29:15;8.67;;;3.77;;
6282;SDS011;3174;53.486;9.568;2023-10-13T15:31:43;10.07;;;4.30;;
6282;SDS011;3174;53.486;9.568;2023-10-13T15:34:31;11.87;;;4.10;;
6282;SDS011;3174;53.486;9.568;2023-10-13T15:37:00;7.80;;;3.97;;
6282;SDS011;3174;53.486;9.568;2023-10-13T15:39:31;9.97;;;3.90;;
6282;SDS011;3174;53.486;9.568;2023-10-13T15:42:01;14.23;;;4.57;;
6282;SDS011;3174;53.486;9.568;2023-10-13T15:44:29;8.47;;;3.70;;
6282;SDS011;3174;53.486;9.568;2023-10-13T15:46:57;9.00;;;3.80;;
6282;SDS011;3174;53.486;9.568;2023-10-13T15:49:28;6.73;;;3.50;;
6282;SDS011;3174;53.486;9.568;2023-10-13T15:51:59;12.97;;;4.20;;